Time;durP1;ratioP1;P1;durP2;ratioP2;P2;SDS_P1;SDS_P2;PMS_P1;PMS_P2;Temp;Humidity;BMP_temperature;BMP_pressure;BME280_temperature;BME280_humidity;BME280_pressure;Samples;Min_cycle;Max_cycle;Signal;HPM_P1;HPM_P2
2022/11/25 00:02:18;;;;;;;7.20;3.70;;;8.20;99.90;;;;;;7392975;19;20123;-75
2022/11/25 00:04:44;;;;;;;5.43;3.27;;;7.80;99.90;;;;;;7390105;19;20138;-74
2022/11/25 00:07:10;;;;;;;7.53;2.90;;;7.80;99.90;;;;;;7391717;19;20181;-75
2022/11/25 00:09:36;;;;;;;6.97;2.80;;;8.00;99.90;;;;;;7398464;19;20571;-75
2022/11/25 00:12:02;;;;;;;7.03;3.00;;;8.10;99.90;;;;;;7400435;19;20143;-75
2022/11/25 00:14:27;;;;;;;5.70;2.60;;;8.10;99.90;;;;;;7397009;19;20517;-75
2022/11/25 00:16:53;;;;;;;5.67;2.80;;;8.20;99.90;;;;;;7399491;19;20502;-74
2022/11/25 00:19:19;;;;;;;6.70;2.77;;;8.20;99.90;;;;;;7399247;19;20134;-74
2022/11/25 00:21:44;;;;;;;9.63;3.63;;;8.20;99.90;;;;;;7401634;19;20142;-73
2022/11/25 00:24:13;;;;;;;5.47;2.57;;;8.20;99.90;;;;;;7399227;19;20510;-74
2022/11/25 00:26:39;;;;;;;4.70;2.80;;;8.30;99.90;;;;;;7398919;19;20142;-74
2022/11/25 00:29:07;;;;;;;8.13;2.93;;;8.30;99.90;;;;;;7400090;19;20210;-74
2022/11/25 00:31:34;;;;;;;6.23;2.87;;;8.20;99.90;;;;;;7399456;19;20145;-73
2022/11/25 00:34:00;;;;;;;6.80;3.13;;;8.20;99.90;;;;;;7397114;19;20166;-75
2022/11/25 00:36:29;;;;;;;6.90;3.00;;;8.10;99.90;;;;;;7397964;19;20155;-75
2022/11/25 00:38:58;;;;;;;5.03;2.50;;;8.10;99.90;;;;;;7399123;19;20598;-75
2022/11/25 00:46:54;;;;;;;4.93;2.93;;;8.10;99.90;;;;;;7399496;19;20824;-74
2022/11/25 00:49:20;;;;;;;11.17;3.30;;;8.10;99.90;;;;;;7397082;19;20158;-75
2022/11/25 00:51:46;;;;;;;6.83;2.93;;;8.10;99.90;;;;;;7398105;19;20161;-75
2022/11/25 00:54:12;;;;;;;5.17;3.03;;;8.10;99.90;;;;;;7394484;19;20579;-75
2022/11/25 00:56:37;;;;;;;5.83;3.20;;;8.00;99.90;;;;;;7399343;19;20149;-74
2022/11/25 00:59:03;;;;;;;7.97;3.20;;;7.70;99.90;;;;;;7396901;19;20151;-76
2022/11/25 01:01:29;;;;;;;6.93;2.53;;;7.20;99.90;;;;;;7398222;19;20139;-75
2022/11/25 01:03:55;;;;;;;4.50;2.53;;;7.10;99.90;;;;;;7397792;19;20178;-75
2022/11/25 01:06:21;;;;;;;6.77;3.00;;;7.00;99.90;;;;;;7398420;19;20225;-74
2022/11/25 01:08:46;;;;;;;5.87;2.23;;;7.40;99.90;;;;;;7398556;19;20542;-74
2022/11/25 01:11:15;;;;;;;7.27;3.30;;;7.60;99.90;;;;;;7397094;19;20135;-74
2022/11/25 01:13:43;;;;;;;9.63;3.67;;;7.80;99.90;;;;;;7397069;19;20151;-74
2022/11/25 01:16:12;;;;;;;5.80;3.80;;;7.90;99.90;;;;;;7396889;19;20147;-74
2022/11/25 01:18:38;;;;;;;11.40;4.60;;;8.00;99.90;;;;;;7395937;19;20142;-74
2022/11/25 01:21:05;;;;;;;8.43;4.30;;;8.10;99.90;;;;;;7394951;19;20509;-74
2022/11/25 01:23:31;;;;;;;8.53;4.07;;;8.10;99.90;;;;;;7397309;19;20146;-74
2022/11/25 01:26:01;;;;;;;11.30;4.60;;;8.00;99.90;;;;;;7395883;19;20131;-73
2022/11/25 01:28:26;;;;;;;6.40;3.53;;;8.00;99.90;;;;;;7395449;19;20151;-74
2022/11/25 01:31:03;;;;;;;7.97;3.30;;;8.00;99.90;;;;;;7396808;19;20122;-74
2022/11/25 01:33:31;;;;;;;8.30;3.33;;;8.10;99.90;;;;;;7395598;19;20154;-75
2022/11/25 01:36:05;;;;;;;5.43;3.37;;;8.00;99.90;;;;;;7397414;19;20142;-75
2022/11/25 01:38:32;;;;;;;5.53;3.87;;;8.10;99.90;;;;;;7392765;19;20533;-75
2022/11/25 01:40:58;;;;;;;6.87;3.87;;;8.10;99.90;;;;;;7395335;19;20131;-74
2022/11/25 01:43:25;;;;;;;8.07;3.83;;;8.10;99.90;;;;;;7396893;19;20155;-74
2022/11/25 01:46:02;;;;;;;9.23;4.20;;;8.20;99.90;;;;;;7395675;19;20225;-74
2022/11/25 01:48:43;;;;;;;7.03;3.63;;;8.20;99.90;;;;;;7396010;19;20141;-74
2022/11/25 01:51:27;;;;;;;10.20;4.13;;;8.10;99.90;;;;;;7398743;19;20144;-74
2022/11/25 01:53:58;;;;;;;10.17;4.40;;;7.90;99.90;;;;;;7396318;19;20146;-74
2022/11/25 01:56:27;;;;;;;11.17;4.53;;;8.00;99.90;;;;;;7396649;19;20213;-74
2022/11/25 01:58:54;;;;;;;7.97;3.60;;;8.00;99.90;;;;;;7397760;19;20138;-74
2022/11/25 02:01:20;;;;;;;6.57;4.00;;;7.90;99.90;;;;;;7396819;19;20143;-75
2022/11/25 02:03:51;;;;;;;5.90;3.80;;;7.80;99.90;;;;;;7394564;19;20534;-75
2022/11/25 02:06:24;;;;;;;7.70;4.00;;;7.90;99.90;;;;;;7395082;19;20254;-75
2022/11/25 02:08:54;;;;;;;7.13;4.43;;;8.00;99.90;;;;;;7396081;19;20546;-75
2022/11/25 02:11:21;;;;;;;6.50;3.90;;;8.10;99.90;;;;;;7394910;19;20147;-74
2022/11/25 02:13:50;;;;;;;9.57;4.37;;;8.00;99.90;;;;;;7393168;19;20151;-74
2022/11/25 02:16:15;;;;;;;6.93;4.70;;;8.00;99.90;;;;;;7394569;19;20274;-76
2022/11/25 02:18:41;;;;;;;10.53;4.67;;;8.10;99.90;;;;;;7394558;19;20610;-74
2022/11/25 02:21:08;;;;;;;8.37;4.40;;;8.10;99.90;;;;;;7395407;19;20174;-74
2022/11/25 02:23:45;;;;;;;6.43;3.40;;;8.10;99.90;;;;;;7393858;19;20154;-75
2022/11/25 02:26:11;;;;;;;13.73;4.53;;;8.10;99.90;;;;;;7394992;19;20153;-75
2022/11/25 02:28:38;;;;;;;7.87;4.13;;;8.00;99.90;;;;;;7395743;19;20142;-74
2022/11/25 02:31:05;;;;;;;7.03;3.63;;;7.90;99.90;;;;;;7392200;19;20143;-73
2022/11/25 02:33:31;;;;;;;9.30;4.60;;;7.90;99.90;;;;;;7394391;19;20146;-74
2022/11/25 02:36:13;;;;;;;7.47;3.93;;;8.00;99.90;;;;;;7395787;19;20152;-74
2022/11/25 02:38:46;;;;;;;7.57;3.80;;;8.00;99.90;;;;;;7395915;19;20130;-75
2022/11/25 02:41:21;;;;;;;8.37;4.20;;;8.00;99.90;;;;;;7394511;19;20170;-74
2022/11/25 02:43:47;;;;;;;8.73;4.50;;;8.00;99.90;;;;;;7393433;19;20146;-74
2022/11/25 02:46:16;;;;;;;7.07;3.90;;;8.10;99.90;;;;;;7393784;19;20141;-74
2022/11/25 02:48:42;;;;;;;7.10;4.20;;;8.10;99.90;;;;;;7395598;19;20473;-74
2022/11/25 02:51:11;;;;;;;7.93;3.70;;;8.00;99.90;;;;;;7393373;19;20150;-75
2022/11/25 02:53:37;;;;;;;5.47;3.93;;;8.00;99.90;;;;;;7394521;19;20135;-74
2022/11/25 02:56:03;;;;;;;6.90;3.40;;;8.00;99.90;;;;;;7388844;19;20487;-75
2022/11/25 02:58:29;;;;;;;9.30;3.97;;;7.70;99.90;;;;;;7393659;19;20171;-74
2022/11/25 03:00:55;;;;;;;6.13;4.00;;;7.80;99.90;;;;;;7394237;19;20643;-74
2022/11/25 03:03:21;;;;;;;7.17;3.83;;;7.90;99.90;;;;;;7393818;19;20483;-74
2022/11/25 03:05:47;;;;;;;9.17;4.50;;;7.90;99.90;;;;;;7392936;19;20134;-75
2022/11/25 03:08:13;;;;;;;9.73;4.13;;;8.00;99.90;;;;;;7393950;19;20135;-74
2022/11/25 03:10:39;;;;;;;7.10;3.50;;;8.00;99.90;;;;;;7395704;19;20145;-75
2022/11/25 03:13:06;;;;;;;10.40;4.63;;;8.10;99.90;;;;;;7393890;19;20143;-75
2022/11/25 03:15:32;;;;;;;7.10;3.63;;;8.00;99.90;;;;;;7390446;19;20143;-75
2022/11/25 03:17:58;;;;;;;5.97;3.60;;;7.90;99.90;;;;;;7394296;19;20138;-74
2022/11/25 03:20:24;;;;;;;9.30;4.37;;;7.70;99.90;;;;;;7393742;19;20154;-76
2022/11/25 03:22:50;;;;;;;9.20;4.20;;;7.70;99.90;;;;;;7392468;19;20142;-74
2022/11/25 03:25:16;;;;;;;7.27;3.87;;;7.80;99.90;;;;;;7393238;19;20647;-74
2022/11/25 03:27:42;;;;;;;8.77;4.07;;;7.80;99.90;;;;;;7392653;19;20146;-74
2022/11/25 03:30:15;;;;;;;12.90;4.30;;;7.30;99.90;;;;;;7393937;19;20142;-75
2022/11/25 03:32:41;;;;;;;8.13;3.97;;;7.40;99.90;;;;;;7393546;19;20135;-75
2022/11/25 03:35:08;;;;;;;6.47;4.10;;;7.50;99.90;;;;;;7391980;19;20138;-75
2022/11/25 03:37:34;;;;;;;7.37;3.37;;;7.60;99.90;;;;;;7394277;19;20143;-74
2022/11/25 03:39:59;;;;;;;6.70;3.90;;;7.70;99.90;;;;;;7392839;19;20161;-75
2022/11/25 03:42:25;;;;;;;8.20;4.17;;;7.60;99.90;;;;;;7390992;19;20135;-75
2022/11/25 03:44:51;;;;;;;6.00;3.87;;;7.80;99.90;;;;;;7393216;19;20149;-75
2022/11/25 03:47:17;;;;;;;6.70;3.80;;;7.70;99.90;;;;;;7392701;19;20154;-73
2022/11/25 03:49:42;;;;;;;8.07;4.40;;;7.80;99.90;;;;;;7391209;19;20161;-75
2022/11/25 03:52:08;;;;;;;8.33;3.87;;;7.80;99.90;;;;;;7392855;19;20145;-75
2022/11/25 03:54:34;;;;;;;6.10;3.80;;;7.80;99.90;;;;;;7389543;19;20150;-75
2022/11/25 03:57:00;;;;;;;5.53;3.23;;;7.80;99.90;;;;;;7392782;19;20202;-75
2022/11/25 03:59:25;;;;;;;8.63;3.77;;;7.80;99.90;;;;;;7391783;19;20159;-75
2022/11/25 04:01:51;;;;;;;5.47;3.43;;;7.80;99.90;;;;;;7388422;19;20493;-74
2022/11/25 04:04:17;;;;;;;9.40;4.10;;;7.40;99.90;;;;;;7392352;19;20156;-74
2022/11/25 04:06:42;;;;;;;8.53;3.77;;;7.10;99.90;;;;;;7391984;19;20142;-75
2022/11/25 04:09:10;;;;;;;9.47;4.40;;;7.40;99.90;;;;;;7391906;19;20139;-75
2022/11/25 04:14:21;;;;;;;7.93;3.20;;;7.60;99.90;;;;;;7388704;19;20165;-75
2022/11/25 04:16:47;;;;;;;5.70;3.43;;;7.30;99.90;;;;;;7391147;19;20206;-74
2022/11/25 04:19:13;;;;;;;6.20;2.87;;;7.10;99.90;;;;;;7392425;19;20221;-73
2022/11/25 04:21:38;;;;;;;5.17;3.00;;;7.30;99.90;;;;;;7390921;19;20180;-75
2022/11/25 04:24:05;;;;;;;6.47;2.70;;;7.50;99.90;;;;;;7390581;19;20172;-75
2022/11/25 04:26:30;;;;;;;3.80;2.70;;;7.20;99.90;;;;;;7392195;19;20660;-74
2022/11/25 04:28:56;;;;;;;5.63;3.13;;;7.40;99.90;;;;;;7392097;19;20226;-75
2022/11/25 04:31:22;;;;;;;6.67;2.60;;;7.60;99.90;;;;;;7392081;19;20131;-75
2022/11/25 04:33:48;;;;;;;6.40;3.23;;;7.60;99.90;;;;;;7389210;19;20138;-75
2022/11/25 04:36:13;;;;;;;6.20;3.53;;;7.60;99.90;;;;;;7394127;19;20598;-75
2022/11/25 04:38:39;;;;;;;7.60;4.13;;;7.60;99.90;;;;;;7390559;19;20135;-75
2022/11/25 04:41:05;;;;;;;5.27;3.53;;;7.70;99.90;;;;;;7390002;19;20154;-74
2022/11/25 04:43:31;;;;;;;5.40;3.87;;;7.60;99.90;;;;;;7390917;19;20639;-75
2022/11/25 04:45:57;;;;;;;5.87;3.60;;;7.60;99.90;;;;;;7388656;19;20151;-75
2022/11/25 04:48:24;;;;;;;9.17;3.93;;;7.60;99.90;;;;;;7390292;19;20135;-74
2022/11/25 04:50:49;;;;;;;7.47;3.90;;;7.60;99.90;;;;;;7391208;19;20131;-74
2022/11/25 04:53:15;;;;;;;5.90;3.37;;;7.60;99.90;;;;;;7390125;19;20146;-74
2022/11/25 04:55:41;;;;;;;7.47;3.37;;;7.60;99.90;;;;;;7392793;19;20159;-75
2022/11/25 04:58:08;;;;;;;4.73;2.80;;;7.10;99.90;;;;;;7397470;19;20622;-74
2022/11/25 05:00:34;;;;;;;9.27;3.13;;;7.10;99.90;;;;;;7398966;19;20222;-75
2022/11/25 05:03:00;;;;;;;6.00;3.00;;;6.90;99.90;;;;;;7397848;19;20222;-74
2022/11/25 05:05:25;;;;;;;7.63;3.10;;;7.10;99.90;;;;;;7396589;19;20648;-75
2022/11/25 05:07:51;;;;;;;3.43;2.63;;;7.50;99.90;;;;;;7398045;19;20170;-73
2022/11/25 05:10:17;;;;;;;6.50;3.73;;;7.60;99.90;;;;;;7399230;19;20599;-74
2022/11/25 05:12:43;;;;;;;9.10;3.23;;;7.70;99.90;;;;;;7396995;19;20138;-74
2022/11/25 05:15:09;;;;;;;6.37;2.77;;;7.60;99.90;;;;;;7394969;19;20150;-75
2022/11/25 05:17:35;;;;;;;6.23;2.53;;;7.10;99.90;;;;;;7398660;19;20147;-76
2022/11/25 05:20:01;;;;;;;5.93;3.23;;;6.60;99.90;;;;;;7395554;19;20185;-75
2022/11/25 05:22:29;;;;;;;7.47;3.13;;;6.70;99.90;;;;;;7397082;19;20147;-74
2022/11/25 05:24:55;;;;;;;3.63;2.83;;;6.70;99.90;;;;;;7397337;19;20495;-75
2022/11/25 05:27:21;;;;;;;4.90;3.13;;;6.70;99.90;;;;;;7397121;19;20845;-74
2022/11/25 05:29:48;;;;;;;4.90;2.70;;;7.10;99.90;;;;;;7399259;19;20146;-75
2022/11/25 05:32:14;;;;;;;6.27;2.80;;;7.20;99.90;;;;;;7395936;19;20147;-74
2022/11/25 05:34:40;;;;;;;5.40;2.83;;;7.20;99.90;;;;;;7394817;19;20154;-74
2022/11/25 05:37:07;;;;;;;4.03;3.00;;;6.90;99.90;;;;;;7396230;19;20171;-74
2022/11/25 05:39:33;;;;;;;4.63;2.70;;;6.40;99.90;;;;;;7395079;19;20139;-75
2022/11/25 05:41:59;;;;;;;4.87;2.37;;;6.30;99.90;;;;;;7397095;19;20146;-75
2022/11/25 05:44:25;;;;;;;4.37;2.20;;;6.50;99.90;;;;;;7395766;19;20138;-75
2022/11/25 05:46:51;;;;;;;4.70;3.10;;;7.00;99.90;;;;;;7395665;19;20901;-75
2022/11/25 05:49:18;;;;;;;6.73;3.83;;;7.30;99.90;;;;;;7394435;19;20175;-74
2022/11/25 05:51:44;;;;;;;9.77;3.77;;;7.40;99.90;;;;;;7395340;19;20160;-74
2022/11/25 05:54:10;;;;;;;7.33;3.37;;;7.40;99.90;;;;;;7392128;19;20198;-73
2022/11/25 05:56:36;;;;;;;5.73;3.00;;;7.40;99.90;;;;;;7395113;19;20619;-75
2022/11/25 05:59:03;;;;;;;5.77;3.33;;;7.50;99.90;;;;;;7394068;19;20154;-75
2022/11/25 06:01:28;;;;;;;5.83;3.07;;;7.40;99.90;;;;;;7393459;19;20149;-74
2022/11/25 06:03:57;;;;;;;6.43;3.47;;;7.60;99.90;;;;;;7395695;19;20135;-74
2022/11/25 06:06:23;;;;;;;5.93;3.10;;;7.50;99.90;;;;;;7392931;19;20150;-76
2022/11/25 06:08:49;;;;;;;6.83;3.17;;;7.40;99.90;;;;;;7394420;19;20139;-75
2022/11/25 06:11:16;;;;;;;7.60;3.50;;;7.40;99.90;;;;;;7390938;19;20489;-75
2022/11/25 06:13:43;;;;;;;13.67;3.90;;;7.50;99.90;;;;;;7390982;19;20135;-75
2022/11/25 06:16:15;;;;;;;9.10;3.63;;;7.50;99.90;;;;;;7392273;19;20524;-74
2022/11/25 06:18:41;;;;;;;7.10;3.83;;;7.30;99.90;;;;;;7394042;19;20157;-75
2022/11/25 06:21:08;;;;;;;5.63;3.17;;;7.30;99.90;;;;;;7387125;19;20139;-74
2022/11/25 06:23:35;;;;;;;10.77;3.93;;;7.40;99.90;;;;;;7392013;19;20158;-74
2022/11/25 06:26:11;;;;;;;7.93;3.70;;;7.50;99.90;;;;;;7393005;19;20142;-73
2022/11/25 06:28:37;;;;;;;6.13;3.33;;;7.50;99.90;;;;;;7394898;19;20149;-75
2022/11/25 06:31:08;;;;;;;5.30;3.47;;;7.50;99.90;;;;;;7391631;19;20142;-74
2022/11/25 06:33:34;;;;;;;6.37;3.27;;;7.50;99.90;;;;;;7388942;19;20202;-74
2022/11/25 06:36:03;;;;;;;8.03;3.00;;;7.30;99.90;;;;;;7378679;19;20214;-76
2022/11/25 06:38:28;;;;;;;8.30;3.97;;;6.70;99.90;;;;;;7380439;19;20139;-76
2022/11/25 06:41:02;;;;;;;5.77;3.20;;;6.50;99.90;;;;;;7383075;19;20238;-76
2022/11/25 06:43:29;;;;;;;5.77;3.03;;;6.70;99.90;;;;;;7391441;19;20154;-77
2022/11/25 06:46:04;;;;;;;5.60;3.00;;;6.50;99.90;;;;;;7386048;19;20143;-76
2022/11/25 06:48:30;;;;;;;6.27;2.87;;;6.50;99.90;;;;;;7384700;19;21089;-75
2022/11/25 06:50:58;;;;;;;4.63;2.90;;;6.50;99.90;;;;;;7388173;19;20154;-76
2022/11/25 06:53:24;;;;;;;10.13;3.53;;;6.40;99.90;;;;;;7395074;19;20145;-76
2022/11/25 06:56:02;;;;;;;6.80;3.23;;;6.80;99.90;;;;;;7393093;19;20910;-75
2022/11/25 06:58:29;;;;;;;6.83;3.37;;;6.90;99.90;;;;;;7390762;19;20181;-75
2022/11/25 07:01:04;;;;;;;7.67;2.97;;;7.00;99.90;;;;;;7389226;19;20157;-74
2022/11/25 07:03:30;;;;;;;4.73;2.73;;;6.80;99.90;;;;;;7391582;19;20221;-75
2022/11/25 07:05:58;;;;;;;7.43;3.40;;;6.80;99.90;;;;;;7389904;19;20155;-75
2022/11/25 07:08:24;;;;;;;7.03;3.50;;;6.90;99.90;;;;;;7393739;19;20150;-74
2022/11/25 07:10:51;;;;;;;4.57;3.40;;;7.10;99.90;;;;;;7391097;19;20158;-75
2022/11/25 07:13:17;;;;;;;6.53;4.23;;;7.00;99.90;;;;;;7390973;19;20158;-74
2022/11/25 07:15:43;;;;;;;8.57;4.47;;;7.20;99.90;;;;;;7391607;19;20485;-75
2022/11/25 07:18:08;;;;;;;5.43;3.63;;;7.30;99.90;;;;;;7387899;19;20138;-77
2022/11/25 07:20:34;;;;;;;11.33;5.73;;;7.50;99.90;;;;;;7392780;19;20147;-74
2022/11/25 07:23:00;;;;;;;10.50;5.00;;;7.60;99.90;;;;;;7390351;19;20138;-75
2022/11/25 07:25:26;;;;;;;9.83;4.10;;;7.60;99.90;;;;;;7390124;19;20519;-75
2022/11/25 07:27:52;;;;;;;5.97;3.67;;;7.40;99.90;;;;;;7390689;19;20139;-75
2022/11/25 07:30:17;;;;;;;8.93;4.27;;;7.10;99.90;;;;;;7390490;19;20466;-74
2022/11/25 07:32:43;;;;;;;7.30;4.07;;;6.70;99.90;;;;;;7391749;19;20547;-75
2022/11/25 07:35:09;;;;;;;8.07;4.20;;;6.70;99.90;;;;;;7391689;19;20135;-75
2022/11/25 07:37:34;;;;;;;10.97;4.40;;;7.00;99.90;;;;;;7390753;19;20162;-76
2022/11/25 07:40:00;;;;;;;6.27;4.07;;;7.40;99.90;;;;;;7389965;19;20138;-76
2022/11/25 07:42:26;;;;;;;13.40;5.30;;;7.50;99.90;;;;;;7391597;19;20158;-75
2022/11/25 07:44:52;;;;;;;9.57;5.00;;;7.60;99.90;;;;;;7390075;19;20570;-75
2022/11/25 07:47:18;;;;;;;8.63;4.50;;;7.30;99.90;;;;;;7391687;19;20143;-74
2022/11/25 07:49:43;;;;;;;9.63;4.47;;;7.40;99.90;;;;;;7390013;19;20618;-76
2022/11/25 07:52:09;;;;;;;7.37;4.73;;;7.40;99.90;;;;;;7390228;19;20205;-75
2022/11/25 07:54:35;;;;;;;5.70;3.80;;;7.70;99.90;;;;;;7385831;19;20158;-75
2022/11/25 07:57:01;;;;;;;9.93;4.10;;;7.90;99.90;;;;;;7389580;19;20602;-76
2022/11/25 07:59:26;;;;;;;6.73;3.63;;;8.00;99.90;;;;;;7392295;19;20149;-76
2022/11/25 08:01:56;;;;;;;6.00;4.10;;;8.10;99.90;;;;;;7389300;19;20143;-76
2022/11/25 08:04:22;;;;;;;12.23;5.87;;;8.10;99.90;;;;;;7391805;19;20522;-76
2022/11/25 08:06:51;;;;;;;10.17;4.33;;;8.10;99.90;;;;;;7395716;19;20586;-76
2022/11/25 08:09:20;;;;;;;8.70;4.90;;;8.10;99.90;;;;;;7393384;19;20138;-77
2022/11/25 08:11:46;;;;;;;7.23;4.63;;;8.00;99.90;;;;;;7393226;19;20178;-77
2022/11/25 08:14:12;;;;;;;6.60;3.87;;;8.20;99.90;;;;;;7388674;19;20150;-76
2022/11/25 08:16:38;;;;;;;8.67;4.37;;;8.30;99.90;;;;;;7387688;19;20138;-75
2022/11/25 08:19:07;;;;;;;10.30;4.10;;;8.30;99.90;;;;;;7391163;19;20489;-76
2022/11/25 08:21:32;;;;;;;10.67;4.67;;;8.20;99.90;;;;;;7390077;19;20570;-76
2022/11/25 08:24:02;;;;;;;7.53;3.97;;;8.30;99.90;;;;;;7387752;19;20686;-75
2022/11/25 08:26:31;;;;;;;8.40;4.40;;;8.10;99.90;;;;;;7390207;19;20142;-76
2022/11/25 08:28:58;;;;;;;6.53;2.83;;;8.20;99.90;;;;;;7398498;19;20252;-76
2022/11/25 08:31:29;;;;;;;4.67;2.37;;;8.20;99.90;;;;;;7399992;19;20504;-76
2022/11/25 08:33:56;;;;;;;8.13;2.90;;;8.30;99.90;;;;;;7396051;19;20143;-76
2022/11/25 08:36:24;;;;;;;4.57;2.60;;;8.10;99.90;;;;;;7395468;19;20139;-77
2022/11/25 08:38:52;;;;;;;6.73;2.33;;;8.30;99.90;;;;;;7396879;19;20227;-77
2022/11/25 08:41:24;;;;;;;5.90;3.10;;;8.50;99.90;;;;;;7396540;19;20131;-77
2022/11/25 08:43:51;;;;;;;6.70;3.20;;;8.60;99.90;;;;;;7401732;19;20166;-75
2022/11/25 08:46:22;;;;;;;9.57;4.17;;;8.70;99.90;;;;;;7399765;19;20583;-77
2022/11/25 08:48:48;;;;;;;6.23;3.70;;;8.80;99.90;;;;;;7398141;19;20134;-76
2022/11/25 08:51:23;;;;;;;8.67;4.87;;;8.90;99.90;;;;;;7397867;19;20138;-76
2022/11/25 08:53:50;;;;;;;9.73;4.50;;;8.90;99.90;;;;;;7396555;19;20174;-77
2022/11/25 08:56:17;;;;;;;8.80;3.70;;;9.10;99.90;;;;;;7392282;19;20189;-76
2022/11/25 08:58:44;;;;;;;7.93;3.63;;;8.90;99.90;;;;;;7397049;19;20154;-77
2022/11/25 09:01:12;;;;;;;5.23;3.70;;;8.90;99.90;;;;;;7395322;19;20142;-76
2022/11/25 09:03:41;;;;;;;7.03;3.60;;;9.20;99.90;;;;;;7396628;19;20180;-76
2022/11/25 09:06:08;;;;;;;4.00;2.77;;;9.00;99.90;;;;;;7395867;19;20583;-77
2022/11/25 09:08:34;;;;;;;7.83;2.93;;;9.20;99.90;;;;;;7399165;19;20149;-76
2022/11/25 09:11:00;;;;;;;6.43;2.80;;;9.10;99.90;;;;;;7395731;19;20603;-76
2022/11/25 09:13:26;;;;;;;14.37;4.20;;;8.90;99.90;;;;;;7393913;19;20139;-76
2022/11/25 09:15:54;;;;;;;8.70;3.90;;;8.90;99.90;;;;;;7395325;19;20152;-79
2022/11/25 09:18:24;;;;;;;6.73;4.10;;;9.00;99.90;;;;;;7394816;19;20218;-78
2022/11/25 09:20:50;;;;;;;9.20;4.57;;;9.10;99.90;;;;;;7395585;19;20213;-76
2022/11/25 09:23:16;;;;;;;13.10;5.27;;;9.10;99.90;;;;;;7393935;19;20143;-76
2022/11/25 09:25:49;;;;;;;7.27;5.00;;;9.00;99.90;;;;;;7400757;19;20146;-76
2022/11/25 09:28:14;;;;;;;10.20;5.13;;;8.80;99.90;;;;;;7396427;19;20146;-77
2022/11/25 09:30:40;;;;;;;7.90;4.90;;;8.80;99.90;;;;;;7395761;19;20135;-77
2022/11/25 09:33:07;;;;;;;7.17;4.57;;;8.80;99.90;;;;;;7395408;19;20146;-77
2022/11/25 09:35:33;;;;;;;7.07;5.50;;;8.90;99.90;;;;;;7406779;19;20163;-75
2022/11/25 09:37:59;;;;;;;10.13;5.07;;;8.70;99.90;;;;;;7396543;19;20147;-76
2022/11/25 09:40:38;;;;;;;12.63;4.67;;;8.90;99.90;;;;;;7393143;19;20172;-76
2022/11/25 09:46:51;;;;;;;7.17;4.33;;;9.00;99.90;;;;;;7393721;19;20154;-77
2022/11/25 09:49:51;;;;;;;8.83;5.17;;;9.10;99.90;;;;;;7393513;19;20600;-76
2022/11/25 09:52:36;;;;;;;8.17;4.63;;;9.20;99.90;;;;;;7395801;19;20165;-77
2022/11/25 09:55:04;;;;;;;7.40;4.67;;;9.10;99.90;;;;;;7395031;19;20154;-75
2022/11/25 09:58:10;;;;;;;14.43;7.40;;;9.20;99.90;;;;;;7396974;19;20142;-76
2022/11/25 10:00:46;;;;;;;12.90;6.83;;;9.20;99.90;;;;;;7402461;19;20145;-77
2022/11/25 10:03:38;;;;;;;10.30;5.80;;;9.30;99.90;;;;;;7393723;19;20142;-77
2022/11/25 10:06:09;;;;;;;14.63;7.53;;;9.30;99.90;;;;;;7394346;19;20139;-76
2022/11/25 10:08:38;;;;;;;8.77;4.73;;;9.40;99.90;;;;;;7395097;19;20135;-77
2022/11/25 10:11:19;;;;;;;9.17;5.07;;;9.50;99.90;;;;;;7392645;19;20155;-76
2022/11/25 10:14:01;;;;;;;7.93;4.70;;;9.50;99.90;;;;;;7394335;19;20139;-76
2022/11/25 10:16:33;;;;;;;9.27;5.30;;;9.50;99.90;;;;;;7395428;19;20139;-77
2022/11/25 10:19:15;;;;;;;10.57;4.80;;;9.60;99.90;;;;;;7393383;19;20139;-77
2022/11/25 10:21:41;;;;;;;7.23;4.40;;;9.50;99.90;;;;;;7402848;19;20166;-76
2022/11/25 10:24:13;;;;;;;8.50;4.70;;;9.60;99.90;;;;;;7396771;19;20138;-75
2022/11/25 10:26:42;;;;;;;7.40;4.60;;;9.60;99.90;;;;;;7396225;19;20131;-76
2022/11/25 10:29:29;;;;;;;8.10;4.80;;;9.60;99.90;;;;;;7392151;19;20492;-76
2022/11/25 10:32:22;;;;;;;7.87;4.30;;;9.60;99.90;;;;;;7393032;19;20142;-77
2022/11/25 10:34:54;;;;;;;9.10;4.97;;;9.60;99.90;;;;;;7389141;19;20222;-77
2022/11/25 10:37:30;;;;;;;8.60;4.50;;;9.70;99.90;;;;;;7392945;19;20535;-76
2022/11/25 10:39:56;;;;;;;6.73;4.13;;;9.80;99.90;;;;;;7391773;19;20160;-77
2022/11/25 10:42:25;;;;;;;10.13;4.93;;;9.80;99.90;;;;;;7394230;19;20627;-77
2022/11/25 10:44:53;;;;;;;8.67;4.00;;;9.90;99.90;;;;;;7391941;19;20585;-77
2022/11/25 10:47:43;;;;;;;7.10;4.77;;;10.00;99.90;;;;;;7393725;19;20155;-77
2022/11/25 10:50:15;;;;;;;7.97;4.97;;;10.10;99.90;;;;;;7393164;19;20131;-76
2022/11/25 10:52:54;;;;;;;7.80;4.27;;;10.20;99.90;;;;;;7388241;19;20150;-76
2022/11/25 10:55:26;;;;;;;11.93;6.30;;;10.10;99.90;;;;;;7392046;19;20143;-76
2022/11/25 10:57:53;;;;;;;9.43;6.33;;;10.10;99.90;;;;;;7391584;19;20172;-77
2022/11/25 11:00:37;;;;;;;13.47;5.93;;;10.10;99.90;;;;;;7391210;19;20599;-76
2022/11/25 11:03:14;;;;;;;8.63;5.20;;;10.00;99.90;;;;;;7391316;19;20177;-77
2022/11/25 11:05:46;;;;;;;10.47;5.23;;;10.10;99.90;;;;;;7390763;19;20203;-77
2022/11/25 11:08:12;;;;;;;11.83;6.80;;;10.10;99.90;;;;;;7392485;19;20156;-77
2022/11/25 11:10:38;;;;;;;10.37;7.23;;;10.10;99.90;;;;;;7395882;19;20147;-78
2022/11/25 11:13:29;;;;;;;12.77;5.93;;;10.20;99.90;;;;;;7391874;19;20139;-76
2022/11/25 11:15:54;;;;;;;11.17;6.30;;;10.10;99.90;;;;;;7393208;19;20146;-76
2022/11/25 11:18:25;;;;;;;12.80;6.00;;;10.10;99.90;;;;;;7392295;19;20476;-79
2022/11/25 11:20:55;;;;;;;14.83;5.20;;;10.10;99.90;;;;;;7391641;19;20166;-77
2022/11/25 11:23:21;;;;;;;30.97;7.07;;;10.10;99.90;;;;;;7391943;19;20155;-77
2022/11/25 11:26:08;;;;;;;20.00;6.50;;;10.20;99.90;;;;;;7392945;19;20472;-78
2022/11/25 11:28:37;;;;;;;9.63;6.40;;;10.30;99.90;;;;;;7392505;19;20161;-77
2022/11/25 11:31:07;;;;;;;7.17;4.37;;;10.20;99.90;;;;;;7392839;19;20166;-78
2022/11/25 11:33:54;;;;;;;14.20;5.40;;;10.20;99.90;;;;;;7390314;19;20139;-76
2022/11/25 11:36:46;;;;;;;8.50;5.07;;;10.10;99.90;;;;;;7389807;19;20146;-76
2022/11/25 11:39:30;;;;;;;12.27;5.17;;;10.10;99.90;;;;;;7392981;19;20135;-77
2022/11/25 11:42:09;;;;;;;9.00;5.13;;;10.00;99.90;;;;;;7390589;19;20154;-77
2022/11/25 11:44:59;;;;;;;12.47;6.50;;;10.00;99.90;;;;;;7391254;19;20498;-76
2022/11/25 11:47:57;;;;;;;11.57;5.70;;;9.90;99.90;;;;;;7394122;19;20594;-77
2022/11/25 11:50:55;;;;;;;9.37;5.07;;;10.00;99.90;;;;;;7393222;19;20139;-76
2022/11/25 11:53:23;;;;;;;6.03;4.37;;;10.00;99.90;;;;;;7388318;19;20239;-76
2022/11/25 11:56:04;;;;;;;7.07;3.80;;;9.90;99.90;;;;;;7388548;19;20154;-77
2022/11/25 11:58:29;;;;;;;7.47;4.03;;;10.00;99.90;;;;;;7392238;19;20138;-77
2022/11/25 12:01:10;;;;;;;7.43;3.70;;;9.90;99.90;;;;;;7389304;19;20561;-76
2022/11/25 12:03:56;;;;;;;6.03;3.30;;;10.00;99.90;;;;;;7390132;19;20142;-77
2022/11/25 12:06:24;;;;;;;8.00;3.87;;;10.10;99.90;;;;;;7389771;19;20544;-76
2022/11/25 12:09:12;;;;;;;7.37;3.90;;;10.20;99.90;;;;;;7390095;19;20179;-76
2022/11/25 12:11:44;;;;;;;5.03;2.20;;;10.20;99.90;;;;;;7391164;19;20147;-76
2022/11/25 12:14:44;;;;;;;5.10;2.30;;;10.00;99.90;;;;;;7389938;19;20142;-76
2022/11/25 12:17:25;;;;;;;6.47;2.67;;;10.00;99.90;;;;;;7390128;19;20634;-76
2022/11/25 12:20:05;;;;;;;9.23;4.20;;;9.90;99.90;;;;;;7388406;19;20235;-76
2022/11/25 12:22:43;;;;;;;10.53;3.93;;;10.00;99.90;;;;;;7389963;19;20688;-76
2022/11/25 12:25:40;;;;;;;9.23;4.23;;;9.80;99.90;;;;;;7392151;19;20138;-77
2022/11/25 12:28:29;;;;;;;7.07;3.60;;;9.60;99.90;;;;;;7387948;19;20262;-77
2022/11/25 12:31:16;;;;;;;6.80;3.77;;;9.50;99.90;;;;;;7391299;19;20206;-76
2022/11/25 12:33:56;;;;;;;11.67;3.90;;;9.60;99.90;;;;;;7388600;19;20155;-75
2022/11/25 12:36:38;;;;;;;7.20;3.90;;;9.90;99.90;;;;;;7388232;19;20217;-76
2022/11/25 12:39:47;;;;;;;6.53;3.47;;;10.20;99.90;;;;;;7389499;19;20131;-77
2022/11/25 12:42:23;;;;;;;10.40;4.40;;;10.10;99.90;;;;;;7389785;19;20184;-77
2022/11/25 12:45:04;;;;;;;8.60;4.10;;;10.20;99.90;;;;;;7388925;19;20153;-76
2022/11/25 12:47:30;;;;;;;11.47;4.73;;;10.40;99.90;;;;;;7388871;19;20488;-76
2022/11/25 12:49:57;;;;;;;5.60;4.13;;;10.40;99.90;;;;;;7392112;19;20158;-76
2022/11/25 12:52:53;;;;;;;12.03;4.70;;;10.50;99.90;;;;;;7389945;19;20646;-76
2022/11/25 12:55:26;;;;;;;7.73;4.53;;;10.50;99.90;;;;;;7388464;19;20142;-77
2022/11/25 12:58:14;;;;;;;8.57;5.00;;;10.50;99.90;;;;;;7389683;19;20154;-77
2022/11/25 13:00:45;;;;;;;6.63;4.00;;;10.40;99.90;;;;;;7390912;19;20554;-77
2022/11/25 13:03:42;;;;;;;8.17;4.40;;;10.50;99.90;;;;;;7389000;19;20170;-76
2022/11/25 13:06:33;;;;;;;11.87;6.20;;;10.50;99.90;;;;;;7387373;19;20142;-77
2022/11/25 13:09:20;;;;;;;15.60;5.77;;;10.50;99.90;;;;;;7389860;19;20151;-77
2022/11/25 13:12:06;;;;;;;18.27;5.70;;;10.50;99.90;;;;;;7388133;19;20150;-76
2022/11/25 13:15:09;;;;;;;9.00;4.97;;;10.40;99.90;;;;;;7387525;19;20142;-76
2022/11/25 13:17:40;;;;;;;11.43;4.37;;;10.50;99.90;;;;;;7395428;19;20157;-76
2022/11/25 13:20:28;;;;;;;9.83;4.70;;;10.40;99.90;;;;;;7396219;19;20510;-77
2022/11/25 13:23:01;;;;;;;7.93;4.70;;;10.50;99.90;;;;;;7396193;19;20501;-76